sensor_id;sensor_type;location;lat;lon;timestamp;P1;durP1;ratioP1;P2;durP2;ratioP2
56122;SDS011;42426;46.104;19.656;2023-02-28T00:01:03;18.52;;;9.63;;
56122;SDS011;42426;46.104;19.656;2023-02-28T00:03:29;18.90;;;8.60;;
56122;SDS011;42426;46.104;19.656;2023-02-28T00:05:54;15.18;;;9.20;;
56122;SDS011;42426;46.104;19.656;2023-02-28T00:08:20;13.35;;;9.10;;
56122;SDS011;42426;46.104;19.656;2023-02-28T00:10:47;13.20;;;9.32;;
56122;SDS011;42426;46.104;19.656;2023-02-28T00:13:12;16.67;;;9.23;;
56122;SDS011;42426;46.104;19.656;2023-02-28T00:15:38;14.48;;;9.77;;
56122;SDS011;42426;46.104;19.656;2023-02-28T00:18:06;15.68;;;9.70;;
56122;SDS011;42426;46.104;19.656;2023-02-28T00:20:31;15.20;;;9.75;;
56122;SDS011;42426;46.104;19.656;2023-02-28T00:22:57;16.90;;;10.40;;
56122;SDS011;42426;46.104;19.656;2023-02-28T00:25:23;20.48;;;10.82;;
56122;SDS011;42426;46.104;19.656;2023-02-28T00:27:53;23.02;;;11.98;;
56122;SDS011;42426;46.104;19.656;2023-02-28T00:30:19;17.35;;;10.65;;
56122;SDS011;42426;46.104;19.656;2023-02-28T00:32:49;15.85;;;10.02;;
56122;SDS011;42426;46.104;19.656;2023-02-28T00:35:15;15.05;;;9.15;;
56122;SDS011;42426;46.104;19.656;2023-02-28T00:37:41;16.50;;;9.68;;
56122;SDS011;42426;46.104;19.656;2023-02-28T00:40:08;15.00;;;8.68;;
56122;SDS011;42426;46.104;19.656;2023-02-28T00:42:36;18.95;;;10.98;;
56122;SDS011;42426;46.104;19.656;2023-02-28T00:45:02;14.60;;;9.68;;
56122;SDS011;42426;46.104;19.656;2023-02-28T00:47:29;18.05;;;10.25;;
56122;SDS011;42426;46.104;19.656;2023-02-28T00:49:55;21.15;;;10.38;;
56122;SDS011;42426;46.104;19.656;2023-02-28T00:52:21;17.35;;;10.45;;
56122;SDS011;42426;46.104;19.656;2023-02-28T00:54:47;15.98;;;9.60;;
56122;SDS011;42426;46.104;19.656;2023-02-28T00:57:12;20.00;;;10.68;;
56122;SDS011;42426;46.104;19.656;2023-02-28T00:59:39;17.80;;;10.20;;
56122;SDS011;42426;46.104;19.656;2023-02-28T01:02:05;22.15;;;11.13;;
56122;SDS011;42426;46.104;19.656;2023-02-28T01:04:30;18.85;;;10.35;;
56122;SDS011;42426;46.104;19.656;2023-02-28T01:06:57;20.05;;;9.77;;
56122;SDS011;42426;46.104;19.656;2023-02-28T01:09:23;18.55;;;9.88;;
56122;SDS011;42426;46.104;19.656;2023-02-28T01:11:48;15.25;;;9.27;;
56122;SDS011;42426;46.104;19.656;2023-02-28T01:14:15;15.38;;;9.52;;
56122;SDS011;42426;46.104;19.656;2023-02-28T01:16:41;18.98;;;9.45;;
56122;SDS011;42426;46.104;19.656;2023-02-28T01:19:07;17.75;;;10.60;;
56122;SDS011;42426;46.104;19.656;2023-02-28T01:21:33;16.80;;;8.98;;
56122;SDS011;42426;46.104;19.656;2023-02-28T01:23:59;17.60;;;9.90;;
56122;SDS011;42426;46.104;19.656;2023-02-28T01:26:25;17.67;;;9.68;;
56122;SDS011;42426;46.104;19.656;2023-02-28T01:28:51;14.98;;;9.90;;
56122;SDS011;42426;46.104;19.656;2023-02-28T01:31:18;14.45;;;9.82;;
56122;SDS011;42426;46.104;19.656;2023-02-28T01:33:44;15.43;;;9.63;;
56122;SDS011;42426;46.104;19.656;2023-02-28T01:36:13;15.93;;;8.63;;
56122;SDS011;42426;46.104;19.656;2023-02-28T01:38:41;14.27;;;9.38;;
56122;SDS011;42426;46.104;19.656;2023-02-28T01:41:08;16.23;;;9.45;;
56122;SDS011;42426;46.104;19.656;2023-02-28T01:46:08;12.38;;;7.70;;
56122;SDS011;42426;46.104;19.656;2023-02-28T01:48:36;15.80;;;8.70;;
56122;SDS011;42426;46.104;19.656;2023-02-28T01:51:08;15.68;;;9.02;;
56122;SDS011;42426;46.104;19.656;2023-02-28T01:53:51;13.13;;;7.70;;
56122;SDS011;42426;46.104;19.656;2023-02-28T01:56:22;17.30;;;9.57;;
56122;SDS011;42426;46.104;19.656;2023-02-28T01:58:51;14.43;;;8.27;;
56122;SDS011;42426;46.104;19.656;2023-02-28T02:01:18;17.00;;;8.68;;
56122;SDS011;42426;46.104;19.656;2023-02-28T02:03:49;15.82;;;8.18;;
56122;SDS011;42426;46.104;19.656;2023-02-28T02:06:21;15.50;;;8.90;;
56122;SDS011;42426;46.104;19.656;2023-02-28T02:08:49;13.60;;;7.68;;
56122;SDS011;42426;46.104;19.656;2023-02-28T02:11:17;18.30;;;10.02;;
56122;SDS011;42426;46.104;19.656;2023-02-28T02:36:31;13.45;;;7.55;;
56122;SDS011;42426;46.104;19.656;2023-02-28T02:42:01;14.07;;;8.05;;
56122;SDS011;42426;46.104;19.656;2023-02-28T02:44:38;14.20;;;7.30;;
56122;SDS011;42426;46.104;19.656;2023-02-28T02:47:14;13.27;;;8.82;;
56122;SDS011;42426;46.104;19.656;2023-02-28T02:49:46;11.18;;;7.57;;
56122;SDS011;42426;46.104;19.656;2023-02-28T02:52:16;12.38;;;8.73;;
56122;SDS011;42426;46.104;19.656;2023-02-28T02:54:47;13.63;;;8.38;;
56122;SDS011;42426;46.104;19.656;2023-02-28T02:57:20;15.13;;;8.13;;
56122;SDS011;42426;46.104;19.656;2023-02-28T02:59:58;15.02;;;8.10;;
56122;SDS011;42426;46.104;19.656;2023-02-28T03:02:26;14.00;;;8.20;;
56122;SDS011;42426;46.104;19.656;2023-02-28T03:04:59;11.52;;;7.72;;
56122;SDS011;42426;46.104;19.656;2023-02-28T03:07:29;11.05;;;8.02;;
56122;SDS011;42426;46.104;19.656;2023-02-28T03:09:55;12.30;;;8.13;;
56122;SDS011;42426;46.104;19.656;2023-02-28T03:12:32;13.85;;;7.43;;
56122;SDS011;42426;46.104;19.656;2023-02-28T03:15:07;14.50;;;7.68;;
56122;SDS011;42426;46.104;19.656;2023-02-28T03:23:18;13.85;;;9.00;;
56122;SDS011;42426;46.104;19.656;2023-02-28T03:26:04;13.30;;;8.02;;
56122;SDS011;42426;46.104;19.656;2023-02-28T03:31:30;13.43;;;8.40;;
56122;SDS011;42426;46.104;19.656;2023-02-28T03:37:08;13.43;;;8.43;;
56122;SDS011;42426;46.104;19.656;2023-02-28T03:39:41;13.02;;;7.80;;
56122;SDS011;42426;46.104;19.656;2023-02-28T03:42:14;15.70;;;9.27;;
56122;SDS011;42426;46.104;19.656;2023-02-28T03:44:51;13.45;;;7.75;;
56122;SDS011;42426;46.104;19.656;2023-02-28T03:47:24;14.93;;;8.40;;
56122;SDS011;42426;46.104;19.656;2023-02-28T03:50:05;12.88;;;8.13;;
56122;SDS011;42426;46.104;19.656;2023-02-28T03:52:34;15.45;;;8.60;;
56122;SDS011;42426;46.104;19.656;2023-02-28T03:55:05;15.90;;;7.82;;
56122;SDS011;42426;46.104;19.656;2023-02-28T04:00:10;12.98;;;8.32;;
56122;SDS011;42426;46.104;19.656;2023-02-28T04:02:38;13.93;;;8.52;;
56122;SDS011;42426;46.104;19.656;2023-02-28T04:05:05;16.55;;;8.88;;
56122;SDS011;42426;46.104;19.656;2023-02-28T04:07:31;13.68;;;8.23;;
56122;SDS011;42426;46.104;19.656;2023-02-28T04:10:00;17.90;;;9.35;;
56122;SDS011;42426;46.104;19.656;2023-02-28T04:12:25;19.65;;;9.75;;
56122;SDS011;42426;46.104;19.656;2023-02-28T04:14:51;12.55;;;8.38;;
56122;SDS011;42426;46.104;19.656;2023-02-28T04:17:17;18.90;;;10.43;;
56122;SDS011;42426;46.104;19.656;2023-02-28T04:19:43;16.08;;;9.40;;
56122;SDS011;42426;46.104;19.656;2023-02-28T04:22:09;14.60;;;9.27;;
56122;SDS011;42426;46.104;19.656;2023-02-28T04:24:35;15.25;;;8.55;;
56122;SDS011;42426;46.104;19.656;2023-02-28T04:27:01;14.55;;;8.70;;
56122;SDS011;42426;46.104;19.656;2023-02-28T04:29:28;18.05;;;10.40;;
56122;SDS011;42426;46.104;19.656;2023-02-28T04:31:57;22.45;;;10.82;;
56122;SDS011;42426;46.104;19.656;2023-02-28T04:34:24;15.98;;;9.93;;
56122;SDS011;42426;46.104;19.656;2023-02-28T04:36:51;17.42;;;9.45;;
56122;SDS011;42426;46.104;19.656;2023-02-28T04:39:19;17.65;;;9.57;;
56122;SDS011;42426;46.104;19.656;2023-02-28T04:41:46;15.32;;;9.30;;
56122;SDS011;42426;46.104;19.656;2023-02-28T04:44:12;14.73;;;8.88;;
56122;SDS011;42426;46.104;19.656;2023-02-28T04:46:38;29.42;;;12.55;;
56122;SDS011;42426;46.104;19.656;2023-02-28T04:49:04;18.35;;;11.13;;
56122;SDS011;42426;46.104;19.656;2023-02-28T04:51:29;15.55;;;9.25;;
56122;SDS011;42426;46.104;19.656;2023-02-28T04:53:55;13.60;;;9.40;;
56122;SDS011;42426;46.104;19.656;2023-02-28T04:56:21;21.10;;;10.50;;
56122;SDS011;42426;46.104;19.656;2023-02-28T04:58:47;14.50;;;9.20;;
56122;SDS011;42426;46.104;19.656;2023-02-28T05:01:24;20.27;;;11.00;;
56122;SDS011;42426;46.104;19.656;2023-02-28T05:03:51;17.17;;;9.90;;
56122;SDS011;42426;46.104;19.656;2023-02-28T05:06:22;16.60;;;10.60;;
56122;SDS011;42426;46.104;19.656;2023-02-28T05:08:49;16.65;;;10.68;;
56122;SDS011;42426;46.104;19.656;2023-02-28T05:13:49;13.45;;;8.95;;
56122;SDS011;42426;46.104;19.656;2023-02-28T05:16:16;16.55;;;9.65;;
56122;SDS011;42426;46.104;19.656;2023-02-28T05:18:42;18.30;;;10.65;;
56122;SDS011;42426;46.104;19.656;2023-02-28T05:24:13;19.98;;;12.60;;
56122;SDS011;42426;46.104;19.656;2023-02-28T05:26:40;20.20;;;10.98;;
56122;SDS011;42426;46.104;19.656;2023-02-28T05:29:07;17.83;;;10.63;;
56122;SDS011;42426;46.104;19.656;2023-02-28T05:31:34;16.83;;;10.45;;
56122;SDS011;42426;46.104;19.656;2023-02-28T05:34:00;17.70;;;11.85;;
56122;SDS011;42426;46.104;19.656;2023-02-28T05:36:26;20.33;;;11.40;;
56122;SDS011;42426;46.104;19.656;2023-02-28T05:38:52;18.83;;;10.57;;
56122;SDS011;42426;46.104;19.656;2023-02-28T05:41:19;19.02;;;10.77;;
56122;SDS011;42426;46.104;19.656;2023-02-28T05:43:45;25.10;;;12.93;;
56122;SDS011;42426;46.104;19.656;2023-02-28T05:46:12;22.52;;;11.60;;
56122;SDS011;42426;46.104;19.656;2023-02-28T05:48:38;17.73;;;10.88;;
56122;SDS011;42426;46.104;19.656;2023-02-28T05:51:05;22.08;;;12.50;;
56122;SDS011;42426;46.104;19.656;2023-02-28T05:53:31;23.48;;;12.23;;
56122;SDS011;42426;46.104;19.656;2023-02-28T05:55:58;20.92;;;13.55;;
56122;SDS011;42426;46.104;19.656;2023-02-28T05:58:24;20.65;;;12.40;;
56122;SDS011;42426;46.104;19.656;2023-02-28T06:00:54;20.95;;;12.57;;
56122;SDS011;42426;46.104;19.656;2023-02-28T06:03:20;18.13;;;11.95;;
56122;SDS011;42426;46.104;19.656;2023-02-28T06:05:46;15.68;;;9.68;;
56122;SDS011;42426;46.104;19.656;2023-02-28T06:08:12;19.05;;;12.43;;
56122;SDS011;42426;46.104;19.656;2023-02-28T06:10:39;18.73;;;10.82;;
56122;SDS011;42426;46.104;19.656;2023-02-28T06:13:05;19.73;;;11.95;;
56122;SDS011;42426;46.104;19.656;2023-02-28T06:15:33;20.85;;;12.02;;
56122;SDS011;42426;46.104;19.656;2023-02-28T06:17:59;21.35;;;11.65;;
56122;SDS011;42426;46.104;19.656;2023-02-28T06:20:26;20.48;;;11.20;;
56122;SDS011;42426;46.104;19.656;2023-02-28T06:22:56;26.00;;;14.45;;
56122;SDS011;42426;46.104;19.656;2023-02-28T06:25:23;23.85;;;14.43;;
56122;SDS011;42426;46.104;19.656;2023-02-28T06:27:50;19.10;;;11.77;;
56122;SDS011;42426;46.104;19.656;2023-02-28T06:30:16;22.25;;;13.98;;
56122;SDS011;42426;46.104;19.656;2023-02-28T06:32:42;22.92;;;14.15;;
56122;SDS011;42426;46.104;19.656;2023-02-28T06:35:08;23.83;;;13.18;;
56122;SDS011;42426;46.104;19.656;2023-02-28T06:37:34;23.95;;;13.35;;
56122;SDS011;42426;46.104;19.656;2023-02-28T06:40:01;20.55;;;12.68;;
56122;SDS011;42426;46.104;19.656;2023-02-28T06:42:28;20.90;;;13.10;;
56122;SDS011;42426;46.104;19.656;2023-02-28T06:44:56;24.92;;;14.57;;
56122;SDS011;42426;46.104;19.656;2023-02-28T06:47:22;26.02;;;15.88;;
56122;SDS011;42426;46.104;19.656;2023-02-28T06:49:48;27.13;;;14.52;;
56122;SDS011;42426;46.104;19.656;2023-02-28T06:52:14;25.95;;;14.85;;
56122;SDS011;42426;46.104;19.656;2023-02-28T06:54:40;24.90;;;15.75;;
56122;SDS011;42426;46.104;19.656;2023-02-28T06:57:07;26.30;;;14.00;;
56122;SDS011;42426;46.104;19.656;2023-02-28T06:59:35;26.20;;;14.50;;
56122;SDS011;42426;46.104;19.656;2023-02-28T07:02:01;27.08;;;14.55;;
56122;SDS011;42426;46.104;19.656;2023-02-28T07:04:27;24.52;;;14.48;;
56122;SDS011;42426;46.104;19.656;2023-02-28T07:06:54;23.95;;;13.73;;
56122;SDS011;42426;46.104;19.656;2023-02-28T07:09:21;25.05;;;12.80;;
56122;SDS011;42426;46.104;19.656;2023-02-28T07:11:47;22.08;;;13.50;;
56122;SDS011;42426;46.104;19.656;2023-02-28T07:14:14;20.65;;;12.82;;
56122;SDS011;42426;46.104;19.656;2023-02-28T07:16:40;23.40;;;12.95;;
56122;SDS011;42426;46.104;19.656;2023-02-28T07:19:06;23.65;;;13.30;;
56122;SDS011;42426;46.104;19.656;2023-02-28T07:21:32;37.33;;;22.38;;
56122;SDS011;42426;46.104;19.656;2023-02-28T07:23:58;28.33;;;16.95;;
56122;SDS011;42426;46.104;19.656;2023-02-28T07:26:25;26.17;;;14.73;;
56122;SDS011;42426;46.104;19.656;2023-02-28T07:28:51;26.48;;;14.48;;
56122;SDS011;42426;46.104;19.656;2023-02-28T07:31:17;21.60;;;13.43;;
56122;SDS011;42426;46.104;19.656;2023-02-28T07:33:44;25.42;;;13.45;;
56122;SDS011;42426;46.104;19.656;2023-02-28T07:36:11;31.35;;;15.60;;
56122;SDS011;42426;46.104;19.656;2023-02-28T07:38:44;26.08;;;14.50;;
56122;SDS011;42426;46.104;19.656;2023-02-28T07:41:13;24.08;;;15.70;;
56122;SDS011;42426;46.104;19.656;2023-02-28T07:43:39;23.73;;;13.70;;
56122;SDS011;42426;46.104;19.656;2023-02-28T07:46:07;29.58;;;16.13;;
56122;SDS011;42426;46.104;19.656;2023-02-28T07:48:33;29.85;;;15.77;;
56122;SDS011;42426;46.104;19.656;2023-02-28T07:51:00;23.50;;;13.57;;
56122;SDS011;42426;46.104;19.656;2023-02-28T07:53:26;28.35;;;15.30;;
56122;SDS011;42426;46.104;19.656;2023-02-28T07:55:59;26.52;;;14.40;;
56122;SDS011;42426;46.104;19.656;2023-02-28T07:58:26;24.35;;;15.05;;
56122;SDS011;42426;46.104;19.656;2023-02-28T08:00:53;25.98;;;14.23;;
56122;SDS011;42426;46.104;19.656;2023-02-28T08:03:20;25.15;;;14.82;;
56122;SDS011;42426;46.104;19.656;2023-02-28T08:05:47;20.55;;;13.10;;
56122;SDS011;42426;46.104;19.656;2023-02-28T08:08:17;21.48;;;12.88;;
56122;SDS011;42426;46.104;19.656;2023-02-28T08:10:43;21.50;;;13.57;;
56122;SDS011;42426;46.104;19.656;2023-02-28T08:13:09;23.98;;;12.90;;
56122;SDS011;42426;46.104;19.656;2023-02-28T08:15:36;20.65;;;13.30;;
56122;SDS011;42426;46.104;19.656;2023-02-28T08:18:02;24.75;;;12.77;;
56122;SDS011;42426;46.104;19.656;2023-02-28T08:20:28;23.38;;;13.63;;
56122;SDS011;42426;46.104;19.656;2023-02-28T08:22:54;24.88;;;13.77;;
56122;SDS011;42426;46.104;19.656;2023-02-28T08:25:20;22.35;;;12.85;;
56122;SDS011;42426;46.104;19.656;2023-02-28T08:27:46;31.83;;;17.23;;
56122;SDS011;42426;46.104;19.656;2023-02-28T08:30:13;26.65;;;16.73;;
56122;SDS011;42426;46.104;19.656;2023-02-28T08:32:39;30.92;;;15.50;;
56122;SDS011;42426;46.104;19.656;2023-02-28T08:35:05;23.45;;;13.05;;
56122;SDS011;42426;46.104;19.656;2023-02-28T08:37:31;20.80;;;12.40;;
56122;SDS011;42426;46.104;19.656;2023-02-28T08:39:57;26.42;;;14.18;;
56122;SDS011;42426;46.104;19.656;2023-02-28T08:42:24;27.02;;;14.70;;
56122;SDS011;42426;46.104;19.656;2023-02-28T08:44:50;22.13;;;13.32;;
56122;SDS011;42426;46.104;19.656;2023-02-28T08:47:16;32.45;;;19.73;;
56122;SDS011;42426;46.104;19.656;2023-02-28T08:49:42;32.67;;;18.55;;
56122;SDS011;42426;46.104;19.656;2023-02-28T08:52:08;27.80;;;16.95;;
56122;SDS011;42426;46.104;19.656;2023-02-28T08:54:34;26.33;;;15.77;;
56122;SDS011;42426;46.104;19.656;2023-02-28T08:57:00;22.23;;;14.60;;
56122;SDS011;42426;46.104;19.656;2023-02-28T08:59:27;26.92;;;16.95;;
56122;SDS011;42426;46.104;19.656;2023-02-28T09:01:53;25.40;;;14.48;;
56122;SDS011;42426;46.104;19.656;2023-02-28T09:04:19;27.70;;;14.68;;
56122;SDS011;42426;46.104;19.656;2023-02-28T09:06:45;23.98;;;14.05;;
56122;SDS011;42426;46.104;19.656;2023-02-28T09:09:11;21.77;;;13.00;;
56122;SDS011;42426;46.104;19.656;2023-02-28T09:11:37;21.27;;;12.40;;
56122;SDS011;42426;46.104;19.656;2023-02-28T09:14:03;23.23;;;13.93;;
56122;SDS011;42426;46.104;19.656;2023-02-28T09:16:30;17.05;;;11.05;;
56122;SDS011;42426;46.104;19.656;2023-02-28T09:18:56;18.50;;;12.00;;
56122;SDS011;42426;46.104;19.656;2023-02-28T09:21:23;18.83;;;11.75;;
56122;SDS011;42426;46.104;19.656;2023-02-28T09:23:49;20.92;;;12.13;;
56122;SDS011;42426;46.104;19.656;2023-02-28T09:26:20;29.48;;;17.88;;
56122;SDS011;42426;46.104;19.656;2023-02-28T09:28:47;34.63;;;17.75;;
56122;SDS011;42426;46.104;19.656;2023-02-28T09:31:14;30.00;;;14.35;;
56122;SDS011;42426;46.104;19.656;2023-02-28T09:33:40;27.20;;;14.82;;
56122;SDS011;42426;46.104;19.656;2023-02-28T09:36:07;23.90;;;13.15;;
56122;SDS011;42426;46.104;19.656;2023-02-28T09:38:33;22.33;;;13.88;;
56122;SDS011;42426;46.104;19.656;2023-02-28T09:41:03;24.73;;;13.57;;
56122;SDS011;42426;46.104;19.656;2023-02-28T09:43:33;20.20;;;11.77;;
56122;SDS011;42426;46.104;19.656;2023-02-28T09:46:14;21.30;;;12.55;;
56122;SDS011;42426;46.104;19.656;2023-02-28T09:48:41;21.05;;;11.57;;
56122;SDS011;42426;46.104;19.656;2023-02-28T09:51:33;20.48;;;11.80;;
56122;SDS011;42426;46.104;19.656;2023-02-28T09:53:55;23.95;;;13.50;;
56122;SDS011;42426;46.104;19.656;2023-02-28T09:56:22;24.83;;;12.40;;
56122;SDS011;42426;46.104;19.656;2023-02-28T10:09:45;20.02;;;10.82;;
56122;SDS011;42426;46.104;19.656;2023-02-28T10:12:12;21.80;;;14.27;;
56122;SDS011;42426;46.104;19.656;2023-02-28T10:14:40;21.17;;;11.75;;
56122;SDS011;42426;46.104;19.656;2023-02-28T10:17:13;19.38;;;12.13;;
56122;SDS011;42426;46.104;19.656;2023-02-28T10:24:52;19.55;;;11.75;;
56122;SDS011;42426;46.104;19.656;2023-02-28T10:27:25;23.88;;;14.07;;
56122;SDS011;42426;46.104;19.656;2023-02-28T10:29:55;23.23;;;14.07;;
56122;SDS011;42426;46.104;19.656;2023-02-28T10:32:23;23.73;;;12.60;;
56122;SDS011;42426;46.104;19.656;2023-02-28T10:34:57;27.15;;;16.58;;
56122;SDS011;42426;46.104;19.656;2023-02-28T10:37:25;32.50;;;18.63;;
56122;SDS011;42426;46.104;19.656;2023-02-28T10:39:52;27.85;;;17.15;;
56122;SDS011;42426;46.104;19.656;2023-02-28T10:42:22;25.50;;;15.70;;
56122;SDS011;42426;46.104;19.656;2023-02-28T10:45:35;27.33;;;15.20;;
56122;SDS011;42426;46.104;19.656;2023-02-28T10:47:48;27.30;;;14.52;;
56122;SDS011;42426;46.104;19.656;2023-02-28T10:52:54;21.90;;;13.52;;
56122;SDS011;42426;46.104;19.656;2023-02-28T10:55:22;23.40;;;13.82;;
56122;SDS011;42426;46.104;19.656;2023-02-28T10:57:48;22.42;;;12.68;;
56122;SDS011;42426;46.104;19.656;2023-02-28T11:00:18;24.70;;;14.48;;
56122;SDS011;42426;46.104;19.656;2023-02-28T11:02:44;22.75;;;14.20;;
56122;SDS011;42426;46.104;19.656;2023-02-28T11:05:22;22.70;;;13.52;;
56122;SDS011;42426;46.104;19.656;2023-02-28T11:08:31;25.60;;;13.77;;
56122;SDS011;42426;46.104;19.656;2023-02-28T11:10:38;24.25;;;15.05;;
56122;SDS011;42426;46.104;19.656;2023-02-28T11:13:04;22.42;;;13.98;;
56122;SDS011;42426;46.104;19.656;2023-02-28T11:15:32;20.17;;;13.15;;
56122;SDS011;42426;46.104;19.656;2023-02-28T11:18:01;24.75;;;15.40;;
56122;SDS011;42426;46.104;19.656;2023-02-28T11:20:31;19.33;;;12.90;;
56122;SDS011;42426;46.104;19.656;2023-02-28T11:22:58;26.50;;;14.70;;
56122;SDS011;42426;46.104;19.656;2023-02-28T11:25:26;19.88;;;11.90;;
56122;SDS011;42426;46.104;19.656;2023-02-28T11:27:54;24.58;;;13.75;;
56122;SDS011;42426;46.104;19.656;2023-02-28T11:30:40;24.70;;;14.73;;
56122;SDS011;42426;46.104;19.656;2023-02-28T11:35:51;27.77;;;15.05;;
56122;SDS011;42426;46.104;19.656;2023-02-28T11:38:18;27.80;;;14.00;;
56122;SDS011;42426;46.104;19.656;2023-02-28T11:45:54;23.33;;;15.02;;
56122;SDS011;42426;46.104;19.656;2023-02-28T11:56:38;23.67;;;14.10;;
56122;SDS011;42426;46.104;19.656;2023-02-28T12:04:40;23.27;;;14.68;;
56122;SDS011;42426;46.104;19.656;2023-02-28T12:07:26;25.00;;;14.15;;
56122;SDS011;42426;46.104;19.656;2023-02-28T12:15:13;26.67;;;14.75;;
56122;SDS011;42426;46.104;19.656;2023-02-28T12:17:55;22.67;;;14.50;;
56122;SDS011;42426;46.104;19.656;2023-02-28T12:25:24;23.23;;;14.15;;
56122;SDS011;42426;46.104;19.656;2023-02-28T12:27:56;22.80;;;13.55;;
56122;SDS011;42426;46.104;19.656;2023-02-28T12:30:23;22.23;;;13.55;;
56122;SDS011;42426;46.104;19.656;2023-02-28T12:33:36;24.23;;;15.65;;
56122;SDS011;42426;46.104;19.656;2023-02-28T12:35:37;25.90;;;15.35;;
56122;SDS011;42426;46.104;19.656;2023-02-28T12:43:06;29.90;;;17.55;;
56122;SDS011;42426;46.104;19.656;2023-02-28T12:45:44;25.73;;;13.80;;
56122;SDS011;42426;46.104;19.656;2023-02-28T12:48:15;24.65;;;13.75;;
56122;SDS011;42426;46.104;19.656;2023-02-28T12:50:41;27.50;;;15.40;;
56122;SDS011;42426;46.104;19.656;2023-02-28T12:53:25;25.60;;;16.33;;
56122;SDS011;42426;46.104;19.656;2023-02-28T12:55:56;29.45;;;15.30;;
56122;SDS011;42426;46.104;19.656;2023-02-28T13:03:29;22.90;;;14.35;;
56122;SDS011;42426;46.104;19.656;2023-02-28T13:06:01;26.35;;;14.98;;
56122;SDS011;42426;46.104;19.656;2023-02-28T13:11:25;28.75;;;14.30;;
56122;SDS011;42426;46.104;19.656;2023-02-28T13:14:01;25.08;;;14.77;;
56122;SDS011;42426;46.104;19.656;2023-02-28T13:16:27;30.70;;;16.48;;
56122;SDS011;42426;46.104;19.656;2023-02-28T13:19:07;24.88;;;14.18;;
56122;SDS011;42426;46.104;19.656;2023-02-28T13:21:40;26.67;;;16.65;;
56122;SDS011;42426;46.104;19.656;2023-02-28T13:24:07;28.70;;;16.90;;
56122;SDS011;42426;46.104;19.656;2023-02-28T13:34:25;24.63;;;15.10;;
56122;SDS011;42426;46.104;19.656;2023-02-28T13:36:51;27.88;;;15.38;;
56122;SDS011;42426;46.104;19.656;2023-02-28T13:47:30;25.13;;;16.50;;
56122;SDS011;42426;46.104;19.656;2023-02-28T13:55:20;27.30;;;13.65;;
56122;SDS011;42426;46.104;19.656;2023-02-28T14:01:05;28.52;;;15.70;;
56122;SDS011;42426;46.104;19.656;2023-02-28T14:08:55;28.95;;;16.85;;
56122;SDS011;42426;46.104;19.656;2023-02-28T14:11:27;34.72;;;17.58;;
56122;SDS011;42426;46.104;19.656;2023-02-28T14:13:53;33.10;;;18.35;;
56122;SDS011;42426;46.104;19.656;2023-02-28T14:16:20;31.08;;;18.63;;
56122;SDS011;42426;46.104;19.656;2023-02-28T14:18:50;33.47;;;19.48;;
56122;SDS011;42426;46.104;19.656;2023-02-28T14:21:24;31.17;;;18.08;;
56122;SDS011;42426;46.104;19.656;2023-02-28T14:31:29;28.27;;;15.60;;
56122;SDS011;42426;46.104;19.656;2023-02-28T14:36:32;28.58;;;16.25;;
56122;SDS011;42426;46.104;19.656;2023-02-28T14:39:15;28.30;;;17.15;;
56122;SDS011;42426;46.104;19.656;2023-02-28T14:41:43;32.67;;;16.50;;
56122;SDS011;42426;46.104;19.656;2023-02-28T14:44:14;29.58;;;15.80;;
56122;SDS011;42426;46.104;19.656;2023-02-28T14:46:40;26.20;;;16.70;;
56122;SDS011;42426;46.104;19.656;2023-02-28T14:49:12;34.67;;;17.27;;
56122;SDS011;42426;46.104;19.656;2023-02-28T14:51:39;28.52;;;16.00;;
56122;SDS011;42426;46.104;19.656;2023-02-28T14:54:05;31.45;;;16.58;;
56122;SDS011;42426;46.104;19.656;2023-02-28T14:56:35;31.10;;;16.88;;
56122;SDS011;42426;46.104;19.656;2023-02-28T14:59:02;29.23;;;18.58;;
56122;SDS011;42426;46.104;19.656;2023-02-28T15:01:28;30.33;;;18.20;;
56122;SDS011;42426;46.104;19.656;2023-02-28T15:04:05;28.55;;;17.90;;
56122;SDS011;42426;46.104;19.656;2023-02-28T15:06:32;30.02;;;18.60;;
56122;SDS011;42426;46.104;19.656;2023-02-28T15:09:17;33.03;;;18.08;;
56122;SDS011;42426;46.104;19.656;2023-02-28T15:11:47;30.33;;;18.38;;
56122;SDS011;42426;46.104;19.656;2023-02-28T15:14:17;32.65;;;17.67;;
56122;SDS011;42426;46.104;19.656;2023-02-28T15:16:44;31.13;;;18.20;;
56122;SDS011;42426;46.104;19.656;2023-02-28T15:19:32;31.10;;;17.23;;
56122;SDS011;42426;46.104;19.656;2023-02-28T15:22:00;32.45;;;18.05;;
56122;SDS011;42426;46.104;19.656;2023-02-28T15:24:39;33.45;;;19.88;;
56122;SDS011;42426;46.104;19.656;2023-02-28T15:27:09;32.58;;;18.38;;
56122;SDS011;42426;46.104;19.656;2023-02-28T15:29:41;37.10;;;20.02;;
56122;SDS011;42426;46.104;19.656;2023-02-28T15:32:16;38.50;;;21.08;;
56122;SDS011;42426;46.104;19.656;2023-02-28T15:34:45;34.85;;;22.38;;
56122;SDS011;42426;46.104;19.656;2023-02-28T15:39:55;44.00;;;21.95;;
56122;SDS011;42426;46.104;19.656;2023-02-28T15:42:22;47.00;;;23.27;;
56122;SDS011;42426;46.104;19.656;2023-02-28T15:44:48;40.17;;;22.48;;
56122;SDS011;42426;46.104;19.656;2023-02-28T15:47:16;40.22;;;21.15;;
56122;SDS011;42426;46.104;19.656;2023-02-28T15:49:53;38.13;;;19.27;;
56122;SDS011;42426;46.104;19.656;2023-02-28T15:52:33;34.95;;;18.27;;
56122;SDS011;42426;46.104;19.656;2023-02-28T15:55:02;30.73;;;18.23;;
56122;SDS011;42426;46.104;19.656;2023-02-28T15:57:33;35.88;;;19.15;;
56122;SDS011;42426;46.104;19.656;2023-02-28T16:00:03;25.88;;;16.00;;
56122;SDS011;42426;46.104;19.656;2023-02-28T16:02:34;30.65;;;17.45;;
56122;SDS011;42426;46.104;19.656;2023-02-28T16:07:36;27.73;;;15.75;;
56122;SDS011;42426;46.104;19.656;2023-02-28T16:10:03;30.90;;;17.83;;
56122;SDS011;42426;46.104;19.656;2023-02-28T16:15:35;30.25;;;17.80;;
56122;SDS011;42426;46.104;19.656;2023-02-28T16:21:25;30.33;;;18.05;;
56122;SDS011;42426;46.104;19.656;2023-02-28T16:26:55;31.60;;;18.52;;
56122;SDS011;42426;46.104;19.656;2023-02-28T16:32:25;30.65;;;19.23;;
56122;SDS011;42426;46.104;19.656;2023-02-28T16:37:54;33.17;;;20.05;;
56122;SDS011;42426;46.104;19.656;2023-02-28T16:43:24;31.02;;;18.95;;
56122;SDS011;42426;46.104;19.656;2023-02-28T16:48:54;33.72;;;18.70;;
56122;SDS011;42426;46.104;19.656;2023-02-28T16:54:25;34.40;;;20.00;;
56122;SDS011;42426;46.104;19.656;2023-02-28T16:59:54;35.53;;;19.65;;
56122;SDS011;42426;46.104;19.656;2023-02-28T17:14:50;37.78;;;23.30;;
56122;SDS011;42426;46.104;19.656;2023-02-28T17:20:20;47.42;;;24.00;;
56122;SDS011;42426;46.104;19.656;2023-02-28T17:25:54;43.20;;;22.98;;
56122;SDS011;42426;46.104;19.656;2023-02-28T17:31:24;39.83;;;22.42;;
56122;SDS011;42426;46.104;19.656;2023-02-28T17:36:54;45.70;;;26.17;;
56122;SDS011;42426;46.104;19.656;2023-02-28T17:42:24;49.50;;;27.45;;
56122;SDS011;42426;46.104;19.656;2023-02-28T17:47:53;52.05;;;29.15;;
56122;SDS011;42426;46.104;19.656;2023-02-28T17:53:23;51.58;;;26.40;;
56122;SDS011;42426;46.104;19.656;2023-02-28T17:58:53;44.33;;;24.55;;
56122;SDS011;42426;46.104;19.656;2023-02-28T18:04:23;45.67;;;26.08;;